createdAt,value
2023-04-04T00:00:40.108Z,2.63
2023-04-04T00:03:08.082Z,2.50
2023-04-04T00:05:36.330Z,2.45
2023-04-04T00:08:04.667Z,2.35
2023-04-04T00:10:33.759Z,2.30
2023-04-04T00:13:01.486Z,3.05
2023-04-04T00:15:29.185Z,2.67
2023-04-04T00:17:57.328Z,3.00
2023-04-04T00:20:25.156Z,2.97
2023-04-04T00:22:52.803Z,2.60
2023-04-04T00:25:20.555Z,3.03
2023-04-04T00:27:50.024Z,3.30
2023-04-04T00:30:17.820Z,2.67
2023-04-04T00:32:45.583Z,2.97
2023-04-04T00:35:13.804Z,2.83
2023-04-04T00:37:41.504Z,2.85
2023-04-04T00:40:12.868Z,3.60
2023-04-04T00:42:40.618Z,3.05
2023-04-04T00:45:10.346Z,2.58
2023-04-04T00:47:39.417Z,3.28
2023-04-04T00:50:08.718Z,3.47
2023-04-04T00:52:37.311Z,3.08
2023-04-04T00:55:05.888Z,3.50
2023-04-04T00:57:35.350Z,3.40
2023-04-04T01:00:05.288Z,3.00
2023-04-04T01:02:34.461Z,3.20
2023-04-04T01:05:04.585Z,2.53
2023-04-04T01:07:33.107Z,2.97
2023-04-04T01:10:02.447Z,3.15
2023-04-04T01:12:30.322Z,3.25
2023-04-04T01:14:58.072Z,3.05
2023-04-04T01:17:27.388Z,2.78
2023-04-04T01:20:03.712Z,3.47
2023-04-04T01:22:32.792Z,3.05
2023-04-04T01:25:02.099Z,3.00
2023-04-04T01:27:31.595Z,2.78
2023-04-04T01:29:59.475Z,2.90
2023-04-04T01:32:31.758Z,2.88
2023-04-04T01:35:06.525Z,2.58
2023-04-04T01:37:38.347Z,2.90
2023-04-04T01:40:13.213Z,3.05
2023-04-04T01:42:44.194Z,2.90
2023-04-04T01:45:12.497Z,3.15
2023-04-04T01:47:41.167Z,3.15
2023-04-04T01:50:10.470Z,3.00
2023-04-04T01:52:38.969Z,3.20
2023-04-04T01:55:08.613Z,3.05
2023-04-04T01:57:36.468Z,2.70
2023-04-04T02:00:07.332Z,3.15
2023-04-04T02:02:35.335Z,3.10
2023-04-04T02:05:04.175Z,2.65
2023-04-04T02:07:32.057Z,3.05
2023-04-04T02:09:59.788Z,2.83
2023-04-04T02:12:27.539Z,3.30
2023-04-04T02:14:55.249Z,3.10
2023-04-04T02:17:25.660Z,3.55
2023-04-04T02:19:53.884Z,3.45
2023-04-04T02:22:21.744Z,3.33
2023-04-04T02:24:49.466Z,3.15
2023-04-04T02:27:17.168Z,3.55
2023-04-04T02:29:44.855Z,3.55
2023-04-04T02:32:12.664Z,3.42
2023-04-04T02:34:41.796Z,3.25
2023-04-04T02:37:10.317Z,3.70
2023-04-04T02:39:38.029Z,3.40
2023-04-04T02:42:06.057Z,3.30
2023-04-04T02:44:33.724Z,3.47
2023-04-04T02:47:01.705Z,3.97
2023-04-04T02:49:29.701Z,3.33
2023-04-04T02:51:58.804Z,3.50
2023-04-04T02:54:26.969Z,3.30
2023-04-04T02:56:54.736Z,3.40
2023-04-04T02:59:22.469Z,3.78
2023-04-04T03:01:50.235Z,3.50
2023-04-04T03:04:19.445Z,3.70
2023-04-04T03:06:48.195Z,3.72
2023-04-04T03:09:17.288Z,3.60
2023-04-04T03:11:45.903Z,3.63
2023-04-04T03:14:13.536Z,4.05
2023-04-04T03:16:41.889Z,3.83
2023-04-04T03:19:09.977Z,4.20
2023-04-04T03:21:37.809Z,3.70
2023-04-04T03:24:05.964Z,3.90
2023-04-04T03:26:35.105Z,3.20
2023-04-04T03:29:04.353Z,3.70
2023-04-04T03:31:32.089Z,3.70
2023-04-04T03:34:00.970Z,3.58
2023-04-04T03:36:28.694Z,3.80
2023-04-04T03:38:56.357Z,3.97
2023-04-04T03:41:23.985Z,3.58
2023-04-04T03:43:53.007Z,3.72
2023-04-04T03:46:21.599Z,4.05
2023-04-04T03:48:49.321Z,3.70
2023-04-04T03:51:24.194Z,3.88
2023-04-04T03:53:51.948Z,3.35
2023-04-04T03:56:19.786Z,3.85
2023-04-04T03:58:47.799Z,4.20
2023-04-04T04:01:17.077Z,4.35
2023-04-04T04:03:44.827Z,4.00
2023-04-04T04:06:12.880Z,5.22
2023-04-04T04:08:40.822Z,4.10
2023-04-04T04:11:08.947Z,4.32
2023-04-04T04:13:37.827Z,3.90
2023-04-04T04:16:06.151Z,4.00
2023-04-04T04:18:35.257Z,4.60
2023-04-04T04:21:04.274Z,4.88
2023-04-04T04:23:32.265Z,4.90
2023-04-04T04:25:59.967Z,4.18
2023-04-04T04:28:34.219Z,4.03
2023-04-04T04:31:06.488Z,4.15
2023-04-04T04:33:36.289Z,4.25
2023-04-04T04:36:04.780Z,4.00
2023-04-04T04:38:32.602Z,4.20
2023-04-04T04:41:02.750Z,3.90
2023-04-04T04:43:30.512Z,4.35
2023-04-04T04:45:58.212Z,3.70
2023-04-04T04:48:25.991Z,4.25
2023-04-04T04:50:55.064Z,4.72
2023-04-04T04:53:22.752Z,3.78
2023-04-04T04:55:52.317Z,3.92
2023-04-04T04:58:22.586Z,3.55
2023-04-04T05:00:50.786Z,3.80
2023-04-04T05:03:18.767Z,3.65
2023-04-04T05:05:46.833Z,4.50
2023-04-04T05:08:16.127Z,4.18
2023-04-04T05:10:45.485Z,4.22
2023-04-04T05:13:14.106Z,3.72
2023-04-04T05:15:42.087Z,4.38
2023-04-04T05:18:09.850Z,4.50
2023-04-04T05:20:38.023Z,3.78
2023-04-04T05:23:06.072Z,3.75
2023-04-04T05:25:35.100Z,3.85
2023-04-04T05:28:03.900Z,4.95
2023-04-04T05:30:32.382Z,4.70
2023-04-04T05:33:00.076Z,4.00
2023-04-04T05:35:27.756Z,4.38
2023-04-04T05:37:55.463Z,4.00
2023-04-04T05:40:23.161Z,4.00
2023-04-04T05:42:56.955Z,5.13
2023-04-04T05:45:24.657Z,4.15
2023-04-04T05:47:52.548Z,4.97
2023-04-04T05:50:20.367Z,4.85
2023-04-04T05:52:48.252Z,4.63
2023-04-04T05:55:16.821Z,4.50
2023-04-04T05:57:49.482Z,4.65
2023-04-04T06:00:19.768Z,4.50
2023-04-04T06:02:47.755Z,5.10
2023-04-04T06:05:15.968Z,5.05
2023-04-04T06:07:43.693Z,5.00
2023-04-04T06:10:12.080Z,4.53
2023-04-04T06:12:39.863Z,4.38
2023-04-04T06:15:08.912Z,4.10
2023-04-04T06:17:38.461Z,4.90
2023-04-04T06:20:08.944Z,4.30
2023-04-04T06:22:36.743Z,4.35
2023-04-04T06:25:04.827Z,5.18
2023-04-04T06:27:32.605Z,4.20
2023-04-04T06:30:00.529Z,4.18
2023-04-04T06:32:28.660Z,4.55
2023-04-04T06:34:57.741Z,4.03
2023-04-04T06:37:25.415Z,4.47
2023-04-04T06:39:53.804Z,4.35
2023-04-04T06:42:21.912Z,4.50
2023-04-04T06:44:49.619Z,4.35
2023-04-04T06:47:17.340Z,4.38
2023-04-04T06:49:45.600Z,4.10
2023-04-04T06:52:14.721Z,4.50
2023-04-04T06:54:42.576Z,4.25
2023-04-04T06:57:10.514Z,3.90
2023-04-04T06:59:38.429Z,3.78
2023-04-04T07:02:06.378Z,4.57
2023-04-04T07:04:35.204Z,3.55
2023-04-04T07:07:03.029Z,3.60
2023-04-04T07:09:32.185Z,3.85
2023-04-04T07:11:59.912Z,3.65
2023-04-04T07:14:27.695Z,3.25
2023-04-04T07:16:55.985Z,3.35
2023-04-04T07:19:28.596Z,3.47
2023-04-04T07:21:56.752Z,3.25
2023-04-04T07:24:24.574Z,3.13
2023-04-04T07:26:53.725Z,3.22
2023-04-04T07:29:22.177Z,3.25
2023-04-04T07:31:49.952Z,3.60
2023-04-04T07:34:17.873Z,3.72
2023-04-04T07:36:45.645Z,2.70
2023-04-04T07:39:13.395Z,3.25
2023-04-04T07:41:41.844Z,2.75
2023-04-04T07:44:11.585Z,3.00
2023-04-04T07:46:39.399Z,3.10
2023-04-04T07:49:07.662Z,2.88
2023-04-04T07:51:35.603Z,2.50
2023-04-04T07:54:03.488Z,2.13
2023-04-04T07:56:31.330Z,2.60
2023-04-04T07:58:59.145Z,2.42
2023-04-04T08:01:28.343Z,3.83
2023-04-04T08:03:56.656Z,2.63
2023-04-04T08:06:25.337Z,2.88
2023-04-04T08:08:53.377Z,2.60
2023-04-04T08:11:21.404Z,2.40
2023-04-04T08:13:49.181Z,2.63
2023-04-04T08:16:17.680Z,2.40
2023-04-04T08:18:46.937Z,2.40
2023-04-04T08:21:14.665Z,3.20
2023-04-04T08:23:42.928Z,2.20
2023-04-04T08:26:11.798Z,2.70
2023-04-04T08:28:39.666Z,2.37
2023-04-04T08:31:08.354Z,2.50
2023-04-04T08:33:46.719Z,2.70
2023-04-04T08:36:16.809Z,2.40
2023-04-04T08:38:44.708Z,3.13
2023-04-04T08:41:13.570Z,2.43
2023-04-04T08:43:46.479Z,3.00
2023-04-04T08:46:16.644Z,2.60
2023-04-04T08:48:45.877Z,2.90
2023-04-04T08:51:17.105Z,2.60
2023-04-04T08:53:44.970Z,2.70
2023-04-04T08:56:13.131Z,2.67
2023-04-04T08:58:41.127Z,2.50
2023-04-04T09:01:09.424Z,2.73
2023-04-04T09:03:38.725Z,2.93
2023-04-04T09:06:07.309Z,2.50
2023-04-04T09:08:36.941Z,2.70
2023-04-04T09:11:05.562Z,2.47
2023-04-04T09:13:33.574Z,2.57
2023-04-04T09:16:02.062Z,2.57
2023-04-04T09:18:30.055Z,2.23
2023-04-04T09:20:57.786Z,2.40
2023-04-04T09:23:25.740Z,2.90
2023-04-04T09:28:27.200Z,2.67
2023-04-04T09:30:55.207Z,2.43
2023-04-04T09:33:25.081Z,2.30
2023-04-04T09:35:56.260Z,2.57
2023-04-04T09:38:25.259Z,2.23
2023-04-04T09:40:56.013Z,2.87
2023-04-04T09:43:25.560Z,3.07
2023-04-04T09:45:56.048Z,2.80
2023-04-04T09:48:27.689Z,2.60
2023-04-04T09:50:55.763Z,2.70
2023-04-04T09:53:23.581Z,2.60
2023-04-04T09:55:52.899Z,2.47
2023-04-04T09:58:26.096Z,2.30
2023-04-04T10:00:55.649Z,2.87
2023-04-04T10:03:39.287Z,2.90
2023-04-04T10:06:09.866Z,2.20
2023-04-04T10:08:41.299Z,2.77
2023-04-04T10:11:12.403Z,3.10
2023-04-04T10:13:44.908Z,2.27
2023-04-04T10:16:12.802Z,2.73
2023-04-04T10:18:40.955Z,3.00
2023-04-04T10:23:43.279Z,2.90
2023-04-04T10:26:12.830Z,3.00
2023-04-04T10:28:44.029Z,2.83
2023-04-04T10:31:21.356Z,2.97
2023-04-04T10:33:57.214Z,2.93
2023-04-04T10:36:29.183Z,2.80
2023-04-04T10:39:06.333Z,2.80
2023-04-04T10:41:34.894Z,2.63
2023-04-04T10:44:14.591Z,2.50
2023-04-04T10:46:44.844Z,3.00
2023-04-04T10:49:13.453Z,2.80
2023-04-04T10:51:54.878Z,2.50
2023-04-04T10:54:23.962Z,2.83
2023-04-04T10:56:52.387Z,2.70
2023-04-04T10:59:21.926Z,2.50
2023-04-04T11:01:51.805Z,2.63
2023-04-04T11:04:21.999Z,2.80
2023-04-04T11:07:12.783Z,2.63
2023-04-04T11:09:56.701Z,2.77
2023-04-04T11:12:36.201Z,2.80
2023-04-04T11:15:13.098Z,2.63
2023-04-04T11:17:57.304Z,2.87
2023-04-04T11:20:30.034Z,2.40
2023-04-04T11:23:05.751Z,2.80
2023-04-04T11:25:36.141Z,2.70
2023-04-04T11:28:44.205Z,3.40
2023-04-04T11:31:27.837Z,2.60
2023-04-04T11:33:58.183Z,4.20
2023-04-04T11:36:54.886Z,2.80
2023-04-04T11:39:26.077Z,2.63
2023-04-04T11:41:55.689Z,3.27
2023-04-04T11:44:24.834Z,3.07
2023-04-04T11:47:02.562Z,3.00
2023-04-04T11:49:32.184Z,3.00
2023-04-04T11:52:00.033Z,3.30
2023-04-04T11:54:28.014Z,3.33
2023-04-04T11:56:55.739Z,2.50
2023-04-04T11:59:23.775Z,3.30
2023-04-04T12:01:51.984Z,3.07
2023-04-04T12:04:22.632Z,3.03
2023-04-04T12:06:52.521Z,2.90
2023-04-04T12:09:21.257Z,2.90
2023-04-04T12:11:49.086Z,3.37
2023-04-04T12:14:18.233Z,3.13
2023-04-04T12:16:47.190Z,2.53
2023-04-04T12:19:15.033Z,2.60
2023-04-04T12:21:44.160Z,2.60
2023-04-04T12:24:12.389Z,3.00
2023-04-04T12:26:41.908Z,3.37
2023-04-04T12:29:10.539Z,2.80
2023-04-04T12:31:40.745Z,3.03
2023-04-04T12:34:08.855Z,2.97
2023-04-04T12:36:39.323Z,3.47
2023-04-04T12:39:11.527Z,3.17
2023-04-04T12:41:49.601Z,4.00
2023-04-04T12:44:29.192Z,2.60
2023-04-04T12:47:00.320Z,2.93
2023-04-04T12:49:32.448Z,2.60
2023-04-04T12:52:04.875Z,3.27
2023-04-04T12:54:36.803Z,3.27
2023-04-04T12:57:07.482Z,2.70
2023-04-04T12:59:36.827Z,3.00
2023-04-04T13:02:08.868Z,2.50
2023-04-04T13:04:37.853Z,2.93
2023-04-04T13:07:05.873Z,3.47
2023-04-04T13:09:35.785Z,3.33
2023-04-04T13:12:08.522Z,2.70
2023-04-04T13:14:58.856Z,3.07
2023-04-04T13:17:27.215Z,3.20
2023-04-04T13:19:55.061Z,2.77
2023-04-04T13:22:22.884Z,2.83
2023-04-04T13:24:52.088Z,2.90
2023-04-04T13:27:19.829Z,3.30
2023-04-04T13:29:47.451Z,3.17
2023-04-04T13:32:15.113Z,2.80
2023-04-04T13:34:42.751Z,2.87
2023-04-04T13:37:10.537Z,2.83
2023-04-04T13:39:38.944Z,2.77
2023-04-04T13:42:08.052Z,3.07
2023-04-04T13:44:35.761Z,2.87
2023-04-04T13:47:03.643Z,3.30
2023-04-04T13:49:31.461Z,2.83
2023-04-04T13:51:59.370Z,3.17
2023-04-04T13:54:27.138Z,2.90
2023-04-04T13:56:55.808Z,2.93
2023-04-04T13:59:25.239Z,2.70
2023-04-04T14:01:53.319Z,3.00
2023-04-04T14:04:24.168Z,2.70
2023-04-04T14:06:52.303Z,2.60
2023-04-04T14:09:20.127Z,3.73
2023-04-04T14:11:47.925Z,3.40
2023-04-04T14:14:15.932Z,2.90
2023-04-04T14:16:45.238Z,2.90
2023-04-04T14:19:13.763Z,2.80
2023-04-04T14:21:41.593Z,3.23
2023-04-04T14:24:09.409Z,2.77
2023-04-04T14:26:43.426Z,3.00
2023-04-04T14:29:11.442Z,2.90
2023-04-04T14:31:39.418Z,2.90
2023-04-04T14:34:08.834Z,3.40
2023-04-04T14:36:36.756Z,2.93
2023-04-04T14:39:04.697Z,2.60
2023-04-04T14:41:32.795Z,3.13
2023-04-04T14:44:00.899Z,2.63
2023-04-04T14:46:28.813Z,3.07
2023-04-04T14:48:56.785Z,3.00
2023-04-04T14:51:27.240Z,3.00
2023-04-04T14:53:55.217Z,2.90
2023-04-04T14:56:23.611Z,3.43
2023-04-04T14:58:51.894Z,3.23
2023-04-04T15:01:21.492Z,2.73
2023-04-04T15:03:49.706Z,3.47
2023-04-04T15:06:17.553Z,2.90
2023-04-04T15:08:47.054Z,3.13
2023-04-04T15:11:16.450Z,3.03
2023-04-04T15:13:44.693Z,3.03
2023-04-04T15:16:12.629Z,3.30
2023-04-04T15:18:40.767Z,3.20
2023-04-04T15:21:08.552Z,3.10
2023-04-04T15:23:36.536Z,2.80
2023-04-04T15:26:06.690Z,2.80
2023-04-04T15:28:34.595Z,2.97
2023-04-04T15:31:03.017Z,3.03
2023-04-04T15:33:30.805Z,3.00
2023-04-04T15:35:58.761Z,3.17
2023-04-04T15:38:26.444Z,3.70
2023-04-04T15:40:54.271Z,3.13
2023-04-04T15:43:24.136Z,3.10
2023-04-04T15:45:51.838Z,3.00
2023-04-04T15:48:19.575Z,3.53
2023-04-04T15:50:47.245Z,3.43
2023-04-04T15:53:14.972Z,3.73
2023-04-04T15:55:44.125Z,4.00
2023-04-04T15:58:11.999Z,3.00
2023-04-04T16:00:41.423Z,3.30
2023-04-04T16:03:09.429Z,3.80
2023-04-04T16:05:37.108Z,3.70
2023-04-04T16:08:04.970Z,4.10
2023-04-04T16:10:32.851Z,3.27
2023-04-04T16:13:00.635Z,3.30
2023-04-04T16:15:28.542Z,3.30
2023-04-04T16:17:59.005Z,3.13
2023-04-04T16:20:27.372Z,3.17
2023-04-04T16:22:56.125Z,3.60
2023-04-04T16:25:23.970Z,3.25
2023-04-04T16:27:51.934Z,3.70
2023-04-04T16:30:19.840Z,3.30
2023-04-04T16:32:47.808Z,3.78
2023-04-04T16:35:17.086Z,3.20
2023-04-04T16:37:44.880Z,3.20
2023-04-04T16:40:15.474Z,3.00
2023-04-04T16:42:43.762Z,3.90
2023-04-04T16:45:12.533Z,4.05
2023-04-04T16:47:40.367Z,3.85
2023-04-04T16:50:09.197Z,3.38
2023-04-04T16:52:38.609Z,3.50
2023-04-04T16:55:08.524Z,3.38
2023-04-04T16:57:36.633Z,4.03
2023-04-04T17:00:06.550Z,3.80
2023-04-04T17:02:34.455Z,3.58
2023-04-04T17:05:02.253Z,3.55
2023-04-04T17:07:30.164Z,3.20
2023-04-04T17:09:59.422Z,3.40
2023-04-04T17:12:27.271Z,3.45
2023-04-04T17:14:55.104Z,3.70
2023-04-04T17:17:22.934Z,4.13
2023-04-04T17:19:51.126Z,3.47
2023-04-04T17:22:18.962Z,3.83
2023-04-04T17:24:46.756Z,3.80
2023-04-04T17:27:15.930Z,3.97
2023-04-04T17:29:43.688Z,4.07
2023-04-04T17:32:11.701Z,3.55
2023-04-04T17:34:39.708Z,3.58
2023-04-04T17:37:11.135Z,3.65
2023-04-04T17:39:39.401Z,4.00
2023-04-04T17:42:10.268Z,4.20
2023-04-04T17:44:39.428Z,3.50
2023-04-04T17:47:08.485Z,3.90
2023-04-04T17:49:37.138Z,3.33
2023-04-04T17:52:05.315Z,3.30
2023-04-04T17:54:33.208Z,3.55
2023-04-04T17:57:03.261Z,3.90
2023-04-04T17:59:31.226Z,4.00
2023-04-04T18:02:00.686Z,4.20
2023-04-04T18:04:28.496Z,4.20
2023-04-04T18:06:56.308Z,4.13
2023-04-04T18:09:24.523Z,3.70
2023-04-04T18:11:52.653Z,4.00
2023-04-04T18:14:20.892Z,4.15
2023-04-04T18:16:51.542Z,4.80
2023-04-04T18:19:20.941Z,5.10
2023-04-04T18:21:49.344Z,4.28
2023-04-04T18:24:17.261Z,4.38
2023-04-04T18:26:45.127Z,6.45
2023-04-04T18:29:13.304Z,8.75
2023-04-04T18:31:41.076Z,7.05
2023-04-04T18:34:08.880Z,5.75
2023-04-04T18:36:38.269Z,7.30
2023-04-04T18:39:06.157Z,6.75
2023-04-04T18:41:34.054Z,4.53
2023-04-04T18:44:02.017Z,4.90
2023-04-04T18:46:29.870Z,6.20
2023-04-04T18:48:57.704Z,5.05
2023-04-04T18:51:26.070Z,5.15
2023-04-04T18:53:55.136Z,5.18
2023-04-04T18:56:22.890Z,4.13
2023-04-04T18:58:51.840Z,4.47
2023-04-04T19:01:19.762Z,5.00
2023-04-04T19:03:48.107Z,4.63
2023-04-04T19:06:16.148Z,4.78
2023-04-04T19:08:46.785Z,4.95
2023-04-04T19:11:16.183Z,5.00
2023-04-04T19:13:43.873Z,5.13
2023-04-04T19:16:11.675Z,4.80
2023-04-04T19:18:39.418Z,5.10
2023-04-04T19:21:08.368Z,4.70
2023-04-04T19:23:37.343Z,5.50
2023-04-04T19:26:06.553Z,4.47
2023-04-04T19:28:36.463Z,5.40
2023-04-04T19:31:10.537Z,5.20
2023-04-04T19:33:39.044Z,5.78
2023-04-04T19:36:10.857Z,7.28
2023-04-04T19:38:40.153Z,7.00
2023-04-04T19:41:12.330Z,6.13
2023-04-04T19:43:42.789Z,5.72
2023-04-04T19:46:12.063Z,6.20
2023-04-04T19:48:48.901Z,6.45
2023-04-04T19:51:43.288Z,6.22
2023-04-04T19:54:16.073Z,6.90
2023-04-04T19:56:47.409Z,5.88
2023-04-04T19:59:58.676Z,6.13
2023-04-04T20:02:56.928Z,4.93
2023-04-04T20:06:03.604Z,6.68
2023-04-04T20:08:41.113Z,6.35
2023-04-04T20:11:09.132Z,6.10
2023-04-04T20:13:38.092Z,6.30
2023-04-04T20:16:17.499Z,6.07
2023-04-04T20:18:46.342Z,5.25
2023-04-04T20:21:16.656Z,5.95
2023-04-04T20:23:47.378Z,6.32
2023-04-04T20:26:35.506Z,5.85
2023-04-04T20:29:03.851Z,5.70
2023-04-04T20:31:35.762Z,5.78
2023-04-04T20:34:03.528Z,5.80
2023-04-04T20:36:33.413Z,6.63
2023-04-04T20:39:01.448Z,5.72
2023-04-04T20:41:29.263Z,5.80
2023-04-04T20:43:58.732Z,5.93
2023-04-04T20:46:27.648Z,5.82
2023-04-04T20:48:57.416Z,5.97
2023-04-04T20:51:28.099Z,5.93
2023-04-04T20:54:10.807Z,5.80
2023-04-04T20:56:55.021Z,6.85
2023-04-04T20:59:32.010Z,6.25
2023-04-04T21:02:19.913Z,5.55
2023-04-04T21:04:51.930Z,6.38
2023-04-04T21:07:36.641Z,5.80
2023-04-04T21:10:23.671Z,6.10
2023-04-04T21:12:51.526Z,5.90
2023-04-04T21:15:23.416Z,7.07
2023-04-04T21:17:51.795Z,7.03
2023-04-04T21:21:04.746Z,6.50
2023-04-04T21:23:34.238Z,6.57
2023-04-04T21:26:03.386Z,6.22
2023-04-04T21:28:34.107Z,5.90
2023-04-04T21:31:03.971Z,5.93
2023-04-04T21:33:31.700Z,5.88
2023-04-04T21:36:01.015Z,6.63
2023-04-04T21:38:31.530Z,6.30
2023-04-04T21:41:00.569Z,6.40
2023-04-04T21:43:29.305Z,6.00
2023-04-04T21:45:57.011Z,5.55
2023-04-04T21:48:25.337Z,6.57
2023-04-04T21:50:53.014Z,5.63
2023-04-04T21:53:23.570Z,6.15
2023-04-04T21:55:51.376Z,5.70
2023-04-04T21:58:19.138Z,5.50
2023-04-04T22:00:47.136Z,5.20
2023-04-04T22:03:15.403Z,5.82
2023-04-04T22:05:43.132Z,5.65
2023-04-04T22:08:11.491Z,6.30
2023-04-04T22:10:45.545Z,6.30
2023-04-04T22:13:14.702Z,6.68
2023-04-04T22:15:44.088Z,6.93
2023-04-04T22:18:14.884Z,6.70
2023-04-04T22:20:43.297Z,6.72
2023-04-04T22:23:12.405Z,6.20
2023-04-04T22:25:41.545Z,6.50
2023-04-04T22:28:09.933Z,6.28
2023-04-04T22:30:39.019Z,7.32
2023-04-04T22:33:07.106Z,6.30
2023-04-04T22:35:35.329Z,6.55
2023-04-04T22:38:03.546Z,5.20
2023-04-04T22:40:33.429Z,5.32
2023-04-04T22:43:03.218Z,5.88
2023-04-04T22:45:32.264Z,5.70
2023-04-04T22:48:02.277Z,6.03
2023-04-04T22:50:30.616Z,6.85
2023-04-04T22:52:58.834Z,7.50
2023-04-04T22:55:27.652Z,7.10
2023-04-04T22:57:55.317Z,6.65
2023-04-04T23:00:24.384Z,7.68
2023-04-04T23:02:52.358Z,6.63
2023-04-04T23:05:20.175Z,6.88
2023-04-04T23:07:48.214Z,6.63
2023-04-04T23:10:16.918Z,6.32
2023-04-04T23:12:44.562Z,6.72
2023-04-04T23:15:13.311Z,6.28
2023-04-04T23:17:42.407Z,5.53
2023-04-04T23:20:10.644Z,6.57
2023-04-04T23:22:38.877Z,6.32
2023-04-04T23:25:07.976Z,6.68
2023-04-04T23:27:35.789Z,6.45
2023-04-04T23:30:04.841Z,5.55
2023-04-04T23:32:32.884Z,6.28
2023-04-04T23:35:01.933Z,6.18
2023-04-04T23:37:29.703Z,6.45
2023-04-04T23:39:57.431Z,5.60
2023-04-04T23:42:25.521Z,5.80
2023-04-04T23:44:53.197Z,6.00
2023-04-04T23:47:21.369Z,6.15
2023-04-04T23:49:50.585Z,6.35
2023-04-04T23:52:22.816Z,6.35
2023-04-04T23:54:50.444Z,6.70
2023-04-04T23:57:18.180Z,6.82
2023-04-04T23:59:45.822Z,7.10
